Time;durP1;ratioP1;P1;durP2;ratioP2;P2;SDS_P1;SDS_P2;PMS_P1;PMS_P2;Temp;Humidity;BMP_temperature;BMP_pressure;BME280_temperature;BME280_humidity;BME280_pressure;Samples;Min_cycle;Max_cycle;Signal;HPM_P1;HPM_P2
2023/12/31 00:02:05;;;;;;;7.33;5.47;;;7.00;99.90;;;;;;4981295;28;20497;-64
2023/12/31 00:04:34;;;;;;;6.50;4.90;;;7.00;99.90;;;;;;4980725;28;20552;-64
2023/12/31 00:07:03;;;;;;;8.00;5.07;;;7.00;99.90;;;;;;4980992;28;20484;-64
2023/12/31 00:09:31;;;;;;;7.47;5.80;;;6.90;99.90;;;;;;4979698;28;21105;-64
2023/12/31 00:11:59;;;;;;;6.83;5.90;;;6.90;99.90;;;;;;4979472;28;20506;-65
2023/12/31 00:14:27;;;;;;;8.80;5.00;;;6.90;99.90;;;;;;4980537;28;21006;-64
2023/12/31 00:16:55;;;;;;;9.83;5.97;;;6.80;99.90;;;;;;4980546;28;20939;-65
2023/12/31 00:19:23;;;;;;;6.40;5.77;;;6.80;99.90;;;;;;4980420;28;20474;-65
2023/12/31 00:21:52;;;;;;;9.80;5.70;;;6.80;99.90;;;;;;4979706;28;20957;-65
2023/12/31 00:24:20;;;;;;;9.67;6.53;;;6.80;99.90;;;;;;4978536;28;20532;-65
2023/12/31 00:26:48;;;;;;;9.50;5.57;;;6.80;99.90;;;;;;4979120;28;20584;-64
2023/12/31 00:29:16;;;;;;;11.40;7.90;;;6.70;99.90;;;;;;4980496;28;20530;-65
2023/12/31 00:31:44;;;;;;;8.13;5.77;;;6.70;99.90;;;;;;4980659;28;20482;-65
2023/12/31 00:34:12;;;;;;;7.60;5.03;;;6.70;99.90;;;;;;4977280;28;20497;-64
2023/12/31 00:36:40;;;;;;;8.57;5.30;;;6.70;99.90;;;;;;4980434;28;20555;-65
2023/12/31 00:39:09;;;;;;;6.80;5.50;;;6.70;99.90;;;;;;4979994;28;20581;-64
2023/12/31 00:41:37;;;;;;;7.27;5.50;;;6.70;99.90;;;;;;4980263;28;21065;-64
2023/12/31 00:44:05;;;;;;;5.93;5.30;;;6.70;99.90;;;;;;4977809;28;20576;-63
2023/12/31 00:46:33;;;;;;;8.07;5.80;;;6.60;99.90;;;;;;4977372;28;20576;-65
2023/12/31 00:49:01;;;;;;;10.33;5.73;;;6.60;99.90;;;;;;4979707;28;20551;-65
2023/12/31 00:51:29;;;;;;;7.93;5.73;;;6.60;99.90;;;;;;4979993;28;20543;-65
2023/12/31 00:53:57;;;;;;;8.90;5.30;;;6.60;99.90;;;;;;4981176;28;20555;-65
2023/12/31 00:56:27;;;;;;;8.43;5.60;;;6.60;99.90;;;;;;4972570;28;20565;-65
2023/12/31 00:58:55;;;;;;;10.30;6.43;;;6.60;99.90;;;;;;4979830;28;20473;-65
2023/12/31 01:01:23;;;;;;;6.90;5.20;;;6.60;99.90;;;;;;4976858;28;20994;-65
2023/12/31 01:03:51;;;;;;;5.33;4.83;;;6.50;99.90;;;;;;4978075;28;20977;-64
2023/12/31 01:06:19;;;;;;;5.77;4.90;;;6.50;99.90;;;;;;4978190;28;20476;-65
2023/12/31 01:08:47;;;;;;;7.33;5.13;;;6.50;99.90;;;;;;4980583;28;20937;-65
2023/12/31 01:11:15;;;;;;;8.57;5.47;;;6.50;99.90;;;;;;4984410;28;20552;-65
2023/12/31 01:13:44;;;;;;;7.07;6.30;;;6.50;99.90;;;;;;4983104;28;20596;-65
2023/12/31 01:16:13;;;;;;;8.30;5.37;;;6.50;99.90;;;;;;4983993;28;20966;-64
2023/12/31 01:18:41;;;;;;;8.07;5.50;;;6.50;99.90;;;;;;4982170;28;20480;-64
2023/12/31 01:21:09;;;;;;;7.30;5.20;;;6.50;99.90;;;;;;4983742;28;20480;-64
2023/12/31 01:23:37;;;;;;;6.83;5.77;;;6.50;99.90;;;;;;4982407;28;20543;-65
2023/12/31 01:26:05;;;;;;;7.27;5.07;;;6.50;99.90;;;;;;4983980;28;20505;-65
2023/12/31 01:28:33;;;;;;;9.87;6.03;;;6.50;99.90;;;;;;4983336;28;20961;-65
2023/12/31 01:31:03;;;;;;;9.17;5.07;;;6.50;99.90;;;;;;4984048;28;20494;-65
2023/12/31 01:33:31;;;;;;;10.80;5.57;;;6.50;99.90;;;;;;4980692;28;20525;-65
2023/12/31 01:35:59;;;;;;;5.30;4.80;;;6.50;99.90;;;;;;4979718;28;20548;-65
2023/12/31 01:38:27;;;;;;;6.83;5.03;;;6.50;99.90;;;;;;4981490;28;20516;-65
2023/12/31 01:40:55;;;;;;;9.77;5.50;;;6.50;99.90;;;;;;4984186;28;20466;-65
2023/12/31 01:43:24;;;;;;;7.20;5.20;;;6.50;99.90;;;;;;4984512;28;20469;-65
2023/12/31 01:45:52;;;;;;;7.90;5.40;;;6.50;99.90;;;;;;4982602;28;20501;-63
2023/12/31 01:48:21;;;;;;;6.60;5.13;;;6.50;99.90;;;;;;4983577;28;20665;-63
2023/12/31 01:50:49;;;;;;;7.53;4.50;;;6.50;99.90;;;;;;4982839;28;21114;-63
2023/12/31 01:53:19;;;;;;;6.13;4.27;;;6.50;99.90;;;;;;4982794;28;21017;-63
2023/12/31 01:55:48;;;;;;;6.93;4.20;;;6.50;99.90;;;;;;4981633;28;20482;-63
2023/12/31 01:58:18;;;;;;;8.83;4.47;;;6.50;99.90;;;;;;4982476;28;20687;-65
2023/12/31 02:00:46;;;;;;;7.00;4.80;;;6.50;99.90;;;;;;4983358;28;20504;-63
2023/12/31 02:03:16;;;;;;;5.90;4.73;;;6.50;99.90;;;;;;4982735;28;20492;-63
2023/12/31 02:05:46;;;;;;;5.90;4.27;;;6.50;99.90;;;;;;4983103;28;20478;-65
2023/12/31 02:08:14;;;;;;;7.30;4.50;;;6.50;99.90;;;;;;4982265;28;21075;-65
2023/12/31 02:10:42;;;;;;;7.20;4.60;;;6.50;99.90;;;;;;4981872;28;20504;-64
2023/12/31 02:13:10;;;;;;;6.93;4.40;;;6.50;99.90;;;;;;4982428;28;20473;-65
2023/12/31 02:15:38;;;;;;;8.13;4.53;;;6.50;99.90;;;;;;4983251;28;20499;-65
2023/12/31 02:18:06;;;;;;;6.17;4.37;;;6.50;99.90;;;;;;4982808;28;20487;-65
2023/12/31 02:20:35;;;;;;;5.13;4.30;;;6.50;99.90;;;;;;4981394;28;20473;-65
2023/12/31 02:23:05;;;;;;;6.20;4.47;;;6.50;99.90;;;;;;4982740;28;20552;-65
2023/12/31 02:25:38;;;;;;;5.93;3.87;;;6.50;99.90;;;;;;4981586;28;20990;-65
2023/12/31 02:28:12;;;;;;;7.23;4.30;;;6.50;99.90;;;;;;4982881;28;20528;-65
2023/12/31 02:30:40;;;;;;;5.07;4.00;;;6.50;99.90;;;;;;4980729;28;20634;-65
2023/12/31 02:33:08;;;;;;;7.27;4.57;;;6.50;99.90;;;;;;4983332;28;20481;-64
2023/12/31 02:35:36;;;;;;;7.67;3.90;;;6.50;99.90;;;;;;4980890;28;20485;-64
2023/12/31 02:38:04;;;;;;;5.87;3.80;;;6.50;99.90;;;;;;4982884;28;20496;-64
2023/12/31 02:40:32;;;;;;;5.83;4.77;;;6.50;99.90;;;;;;4982427;28;20520;-64
2023/12/31 02:43:00;;;;;;;6.43;4.50;;;6.50;99.90;;;;;;4981894;28;20480;-64
2023/12/31 02:45:30;;;;;;;4.87;4.07;;;6.50;99.90;;;;;;4981293;28;20472;-64
2023/12/31 02:47:57;;;;;;;5.50;4.50;;;6.50;99.90;;;;;;4981081;28;20528;-64
2023/12/31 02:50:26;;;;;;;6.80;3.73;;;6.50;99.90;;;;;;4982044;28;20573;-63
2023/12/31 02:52:54;;;;;;;5.10;4.10;;;6.50;99.90;;;;;;4982450;28;21226;-64
2023/12/31 02:55:22;;;;;;;5.57;3.60;;;6.50;99.90;;;;;;4981690;28;21061;-64
2023/12/31 02:57:50;;;;;;;5.03;3.80;;;6.50;99.90;;;;;;4980465;28;20876;-64
2023/12/31 03:00:18;;;;;;;7.93;3.70;;;6.50;99.90;;;;;;4980297;28;20556;-64
2023/12/31 03:02:48;;;;;;;5.23;3.20;;;6.60;99.90;;;;;;4980699;28;20476;-64
2023/12/31 03:05:16;;;;;;;7.03;3.37;;;6.60;99.90;;;;;;4982324;28;20473;-64
2023/12/31 03:07:44;;;;;;;4.67;3.60;;;6.60;99.90;;;;;;4981605;28;20853;-64
2023/12/31 03:10:12;;;;;;;4.17;3.10;;;6.60;99.90;;;;;;4980913;28;20492;-64
2023/12/31 03:12:40;;;;;;;6.23;3.70;;;6.60;99.90;;;;;;4982093;28;20493;-65
2023/12/31 03:15:10;;;;;;;4.13;3.63;;;6.50;99.90;;;;;;4981086;28;20473;-64
2023/12/31 03:17:38;;;;;;;7.10;3.70;;;6.50;99.90;;;;;;4981568;28;20522;-64
2023/12/31 03:20:10;;;;;;;5.23;4.00;;;6.50;99.90;;;;;;4980453;28;20488;-63
2023/12/31 03:22:38;;;;;;;5.47;3.83;;;6.60;99.90;;;;;;4980472;28;20492;-65
2023/12/31 03:25:10;;;;;;;4.37;3.20;;;6.60;99.90;;;;;;4981801;28;20473;-64
2023/12/31 03:27:38;;;;;;;4.37;3.13;;;6.60;99.90;;;;;;4981466;28;20895;-64
2023/12/31 03:30:08;;;;;;;5.00;3.27;;;6.60;99.90;;;;;;4979808;28;21057;-64
2023/12/31 03:32:36;;;;;;;5.10;3.10;;;6.60;99.90;;;;;;4980447;28;20498;-64
2023/12/31 03:35:05;;;;;;;3.70;3.30;;;6.60;99.90;;;;;;4981361;28;20473;-64
2023/12/31 03:37:34;;;;;;;4.33;3.00;;;6.60;99.90;;;;;;4980487;28;20494;-64
2023/12/31 03:40:03;;;;;;;5.63;3.17;;;6.60;99.90;;;;;;4982061;28;20492;-65
2023/12/31 03:42:31;;;;;;;6.57;3.27;;;6.60;99.90;;;;;;4982708;28;20472;-65
2023/12/31 03:44:59;;;;;;;4.97;3.43;;;6.60;99.90;;;;;;4981292;28;20568;-65
2023/12/31 03:47:28;;;;;;;5.13;2.83;;;6.60;99.90;;;;;;4980837;28;20540;-64
2023/12/31 03:49:56;;;;;;;3.53;2.80;;;6.60;99.90;;;;;;4980512;28;20484;-64
2023/12/31 03:52:24;;;;;;;5.10;2.70;;;6.60;99.90;;;;;;4980233;28;21015;-65
2023/12/31 03:54:54;;;;;;;3.50;2.87;;;6.60;99.90;;;;;;4980444;28;20465;-65
2023/12/31 03:57:22;;;;;;;5.50;3.10;;;6.60;99.90;;;;;;4978538;28;20501;-64
2023/12/31 03:59:50;;;;;;;4.20;2.97;;;6.50;99.90;;;;;;4980330;28;20890;-64
2023/12/31 04:02:18;;;;;;;5.40;3.10;;;6.60;99.90;;;;;;4980554;28;20560;-64
2023/12/31 04:04:47;;;;;;;6.03;2.67;;;6.60;99.90;;;;;;4979771;28;20978;-64
2023/12/31 04:07:15;;;;;;;8.83;3.33;;;6.50;99.90;;;;;;4979803;28;20493;-64
2023/12/31 04:09:43;;;;;;;2.60;2.40;;;6.50;99.90;;;;;;4981063;28;20539;-64
2023/12/31 04:12:13;;;;;;;3.80;3.10;;;6.50;99.90;;;;;;4980162;28;20496;-65
2023/12/31 04:14:41;;;;;;;4.20;2.70;;;6.50;99.90;;;;;;4980281;28;20465;-64
2023/12/31 04:17:09;;;;;;;4.90;2.87;;;6.50;99.90;;;;;;4980481;28;20584;-64
2023/12/31 04:19:37;;;;;;;4.10;2.47;;;6.60;99.90;;;;;;4980243;28;20490;-64
2023/12/31 04:22:05;;;;;;;4.63;2.70;;;6.60;99.90;;;;;;4981175;28;20488;-64
2023/12/31 04:24:33;;;;;;;3.50;2.63;;;6.60;99.90;;;;;;4978741;28;20981;-64
2023/12/31 04:27:01;;;;;;;4.10;2.90;;;6.60;99.90;;;;;;4979784;28;21014;-64
2023/12/31 04:29:30;;;;;;;5.97;2.50;;;6.60;99.90;;;;;;4980645;28;20561;-64
2023/12/31 04:31:58;;;;;;;5.20;2.53;;;6.60;99.90;;;;;;4981072;28;21246;-64
2023/12/31 04:34:26;;;;;;;2.90;2.10;;;6.60;99.90;;;;;;4978951;28;20472;-65
2023/12/31 04:36:54;;;;;;;5.70;3.10;;;6.70;99.90;;;;;;4980885;28;20521;-65
2023/12/31 04:39:24;;;;;;;3.80;2.40;;;6.60;99.90;;;;;;4979034;28;20512;-64
2023/12/31 04:41:52;;;;;;;4.70;2.30;;;6.60;99.90;;;;;;4980603;28;20492;-64
2023/12/31 04:44:20;;;;;;;3.40;2.30;;;6.70;99.90;;;;;;4977563;28;20465;-64
2023/12/31 04:46:49;;;;;;;3.90;2.60;;;6.70;99.90;;;;;;4984352;28;20528;-65
2023/12/31 04:49:17;;;;;;;3.13;2.50;;;6.70;99.90;;;;;;4984256;28;20476;-64
2023/12/31 04:51:45;;;;;;;8.60;2.73;;;6.70;99.90;;;;;;4983119;28;20481;-64
2023/12/31 04:54:13;;;;;;;4.70;2.80;;;6.70;99.90;;;;;;4984154;28;20911;-64
2023/12/31 04:56:41;;;;;;;4.33;2.20;;;6.70;99.90;;;;;;4982360;28;20616;-65
2023/12/31 04:59:09;;;;;;;3.40;2.60;;;6.70;99.90;;;;;;4982160;28;20495;-64
2023/12/31 05:01:37;;;;;;;3.00;2.60;;;6.60;99.90;;;;;;4984279;28;20461;-64
2023/12/31 05:04:07;;;;;;;5.33;2.50;;;6.60;99.90;;;;;;4984222;28;20982;-64
2023/12/31 05:06:34;;;;;;;2.93;2.50;;;6.60;99.90;;;;;;4983921;28;20522;-64
2023/12/31 05:09:03;;;;;;;4.00;2.80;;;6.60;99.90;;;;;;4983618;28;20485;-64
2023/12/31 05:11:31;;;;;;;4.83;2.37;;;6.60;99.90;;;;;;4983165;28;20548;-64
2023/12/31 05:13:59;;;;;;;3.90;2.43;;;6.60;99.90;;;;;;4983197;28;21019;-65
2023/12/31 05:16:31;;;;;;;3.70;3.40;;;6.60;99.90;;;;;;4980580;28;21285;-64
2023/12/31 05:19:00;;;;;;;3.90;2.07;;;6.60;99.90;;;;;;4983299;28;20567;-64
2023/12/31 05:21:30;;;;;;;7.40;2.60;;;6.60;99.90;;;;;;4982468;28;20477;-65
2023/12/31 05:23:58;;;;;;;4.93;2.80;;;6.60;99.90;;;;;;4983301;28;20917;-64
2023/12/31 05:26:26;;;;;;;4.23;2.50;;;6.60;99.90;;;;;;4981350;28;20479;-64
2023/12/31 05:28:54;;;;;;;2.80;2.53;;;6.60;99.90;;;;;;4983126;28;20510;-65
2023/12/31 05:31:22;;;;;;;4.70;2.90;;;6.60;99.90;;;;;;4984081;28;20473;-64
2023/12/31 05:33:50;;;;;;;5.20;2.40;;;6.60;99.90;;;;;;4983023;28;20481;-65
2023/12/31 05:36:18;;;;;;;5.73;2.70;;;6.60;99.90;;;;;;4983610;28;20475;-65
2023/12/31 05:38:47;;;;;;;4.53;2.50;;;6.60;99.90;;;;;;4982913;28;20553;-65
2023/12/31 05:41:15;;;;;;;3.73;2.60;;;6.60;99.90;;;;;;4984099;28;20573;-65
2023/12/31 05:43:44;;;;;;;3.37;3.13;;;6.60;99.90;;;;;;4982665;28;21085;-65
2023/12/31 05:46:12;;;;;;;3.60;2.83;;;6.60;99.90;;;;;;4982919;28;20473;-64
2023/12/31 05:48:40;;;;;;;4.07;2.70;;;6.60;99.90;;;;;;4981850;28;20486;-65
2023/12/31 05:51:08;;;;;;;3.70;2.30;;;6.60;99.90;;;;;;4982476;28;20473;-65
2023/12/31 05:53:36;;;;;;;3.70;2.43;;;6.60;99.90;;;;;;4984168;28;20883;-65
2023/12/31 05:56:06;;;;;;;4.00;2.20;;;6.70;99.90;;;;;;4981874;28;20564;-64
2023/12/31 05:58:33;;;;;;;3.90;2.80;;;6.70;99.90;;;;;;4980012;28;20569;-65
2023/12/31 06:01:02;;;;;;;3.00;2.60;;;6.70;99.90;;;;;;4983536;28;20505;-65
2023/12/31 06:03:31;;;;;;;4.57;2.50;;;6.70;99.90;;;;;;4981129;28;20473;-65
2023/12/31 06:06:00;;;;;;;2.53;2.33;;;6.70;99.90;;;;;;4982092;28;20477;-63
2023/12/31 06:08:28;;;;;;;4.60;2.77;;;6.70;99.90;;;;;;4981728;28;20521;-63
2023/12/31 06:10:56;;;;;;;4.40;2.50;;;6.70;99.90;;;;;;4983190;28;20481;-64
2023/12/31 06:13:25;;;;;;;3.90;2.47;;;6.70;99.90;;;;;;4982998;28;20595;-65
2023/12/31 06:15:53;;;;;;;2.97;2.60;;;6.70;99.90;;;;;;4983287;28;20470;-65
2023/12/31 06:18:21;;;;;;;4.13;2.50;;;6.70;99.90;;;;;;4981086;28;20517;-65
2023/12/31 06:20:49;;;;;;;4.37;2.70;;;6.70;99.90;;;;;;4982707;28;20560;-65
2023/12/31 06:23:17;;;;;;;4.30;2.60;;;6.70;99.90;;;;;;4981812;28;20535;-64
2023/12/31 06:25:46;;;;;;;2.50;2.30;;;6.70;99.90;;;;;;4979714;28;20484;-64
2023/12/31 06:28:14;;;;;;;5.17;2.57;;;6.70;99.90;;;;;;4982437;28;20537;-65
2023/12/31 06:30:44;;;;;;;4.73;2.57;;;6.70;99.90;;;;;;4982016;28;20505;-64
2023/12/31 06:33:12;;;;;;;3.17;2.67;;;6.70;99.90;;;;;;4981897;28;20489;-65
2023/12/31 06:35:40;;;;;;;4.33;2.57;;;6.60;99.90;;;;;;4980521;28;20473;-65
2023/12/31 06:38:08;;;;;;;6.50;3.17;;;6.60;99.90;;;;;;4981458;28;20561;-65
2023/12/31 06:40:36;;;;;;;5.90;2.60;;;6.60;99.90;;;;;;4982401;28;20470;-64
2023/12/31 06:43:04;;;;;;;4.47;2.63;;;6.60;99.90;;;;;;4981851;28;21155;-64
2023/12/31 06:45:33;;;;;;;3.77;2.43;;;6.60;99.90;;;;;;4982482;28;20498;-64
2023/12/31 06:48:07;;;;;;;3.73;2.70;;;6.60;99.90;;;;;;4982693;28;20485;-64
2023/12/31 06:50:35;;;;;;;4.07;2.77;;;6.70;99.90;;;;;;4981546;28;20536;-64
2023/12/31 06:53:03;;;;;;;5.17;2.50;;;6.60;99.90;;;;;;4981635;28;20937;-64
2023/12/31 06:55:32;;;;;;;5.23;2.43;;;6.60;99.90;;;;;;4981170;28;20890;-64
2023/12/31 06:58:00;;;;;;;3.20;2.83;;;6.60;99.90;;;;;;4980814;28;21038;-64
2023/12/31 07:00:28;;;;;;;2.53;2.33;;;6.60;99.90;;;;;;4981608;28;20548;-64
2023/12/31 07:02:56;;;;;;;2.97;2.67;;;6.60;99.90;;;;;;4976850;28;20478;-65
2023/12/31 07:05:25;;;;;;;2.63;2.37;;;6.60;99.90;;;;;;4981945;28;20473;-65
2023/12/31 07:07:53;;;;;;;3.07;2.50;;;6.60;99.90;;;;;;4980671;28;20850;-64
2023/12/31 07:10:23;;;;;;;2.90;2.07;;;6.60;99.90;;;;;;4981879;28;20543;-65
2023/12/31 07:12:52;;;;;;;2.50;2.30;;;6.50;99.90;;;;;;4981683;28;20497;-64
2023/12/31 07:15:21;;;;;;;2.90;2.30;;;6.60;99.90;;;;;;4980751;28;20507;-64
2023/12/31 07:17:49;;;;;;;2.90;2.10;;;6.60;99.90;;;;;;4981609;28;21176;-65
2023/12/31 07:20:18;;;;;;;2.90;2.33;;;6.60;99.90;;;;;;4980742;28;20472;-65
2023/12/31 07:22:47;;;;;;;4.10;2.87;;;6.60;99.90;;;;;;4981628;28;20548;-64
2023/12/31 07:25:15;;;;;;;4.47;2.37;;;6.60;99.90;;;;;;4982060;28;20477;-65
2023/12/31 07:27:43;;;;;;;3.90;2.80;;;6.60;99.90;;;;;;4980519;28;21029;-64
2023/12/31 07:30:12;;;;;;;5.93;2.50;;;6.60;99.90;;;;;;4981626;28;20475;-65
2023/12/31 07:32:40;;;;;;;7.73;2.33;;;6.60;99.90;;;;;;4981480;28;21021;-64
2023/12/31 07:35:08;;;;;;;3.80;2.57;;;6.60;99.90;;;;;;4981507;28;20481;-64
2023/12/31 07:37:38;;;;;;;4.23;2.57;;;6.60;99.90;;;;;;4981823;28;20504;-64
2023/12/31 07:40:10;;;;;;;3.80;2.70;;;6.50;99.90;;;;;;4982478;28;20580;-64
2023/12/31 07:42:38;;;;;;;4.83;2.50;;;6.50;99.90;;;;;;4983146;28;20473;-64
2023/12/31 07:45:08;;;;;;;2.73;2.47;;;6.50;99.90;;;;;;4980334;28;20564;-65
2023/12/31 07:47:37;;;;;;;3.10;2.60;;;6.50;99.90;;;;;;4980694;28;21076;-64
2023/12/31 07:50:07;;;;;;;3.40;2.57;;;6.50;99.90;;;;;;4981192;28;20485;-65
2023/12/31 07:52:36;;;;;;;4.30;2.47;;;6.50;99.90;;;;;;4980497;28;20485;-65
2023/12/31 07:55:08;;;;;;;3.90;2.43;;;6.50;99.90;;;;;;4981140;28;20469;-64
2023/12/31 07:57:38;;;;;;;4.20;2.70;;;6.50;99.90;;;;;;4981742;28;20496;-65
2023/12/31 08:00:07;;;;;;;3.10;2.30;;;6.50;99.90;;;;;;4980487;28;20982;-63
2023/12/31 08:02:35;;;;;;;4.27;2.40;;;6.50;99.90;;;;;;4980810;28;20508;-65
2023/12/31 08:05:04;;;;;;;2.73;2.50;;;6.50;99.90;;;;;;4981288;28;20568;-65
2023/12/31 08:07:32;;;;;;;9.13;2.67;;;6.50;99.90;;;;;;4980939;28;20576;-65
2023/12/31 08:10:00;;;;;;;3.90;2.50;;;6.50;99.90;;;;;;4979566;28;20485;-65
2023/12/31 08:12:28;;;;;;;3.40;2.70;;;6.40;99.90;;;;;;4981786;28;20476;-64
2023/12/31 08:14:58;;;;;;;3.03;2.60;;;6.40;99.90;;;;;;4981068;28;20474;-64
2023/12/31 08:17:27;;;;;;;2.47;2.23;;;6.40;99.90;;;;;;4980236;28;20493;-65
2023/12/31 08:19:55;;;;;;;2.50;2.23;;;6.40;99.90;;;;;;4978753;28;20872;-65
2023/12/31 08:22:23;;;;;;;6.37;3.00;;;6.40;99.90;;;;;;4980521;28;20468;-64
2023/12/31 08:24:51;;;;;;;4.03;2.57;;;6.40;99.90;;;;;;4981361;28;20472;-65
2023/12/31 08:27:19;;;;;;;3.53;2.50;;;6.40;99.90;;;;;;4979028;28;20594;-64
2023/12/31 08:29:47;;;;;;;2.70;2.50;;;6.40;99.90;;;;;;4980644;28;20545;-63
2023/12/31 08:32:18;;;;;;;2.63;2.43;;;6.40;99.90;;;;;;4980206;28;20466;-63
2023/12/31 08:34:47;;;;;;;2.60;2.40;;;6.50;99.90;;;;;;4980154;28;20555;-64
2023/12/31 08:37:15;;;;;;;4.10;2.70;;;6.40;99.90;;;;;;4977894;28;20528;-64
2023/12/31 08:39:43;;;;;;;2.90;2.47;;;6.50;99.90;;;;;;4980890;28;20518;-64
2023/12/31 08:42:11;;;;;;;5.03;2.40;;;6.50;99.90;;;;;;4980985;28;20477;-63
2023/12/31 08:44:39;;;;;;;3.00;2.70;;;6.50;99.90;;;;;;4980881;28;20572;-64
2023/12/31 08:47:29;;;;;;;3.47;2.23;;;6.50;99.90;;;;;;4981385;28;20481;-63
2023/12/31 08:49:57;;;;;;;3.80;2.60;;;6.50;99.90;;;;;;4979760;28;20481;-63
2023/12/31 08:52:25;;;;;;;3.00;2.43;;;6.50;99.90;;;;;;4982084;28;20563;-64
2023/12/31 08:54:53;;;;;;;3.63;2.90;;;6.60;99.90;;;;;;4979787;28;20564;-63
2023/12/31 08:57:21;;;;;;;4.27;2.70;;;6.60;99.90;;;;;;4980007;28;20589;-63
2023/12/31 08:59:49;;;;;;;3.10;2.90;;;6.60;99.90;;;;;;4979874;28;20584;-63
2023/12/31 09:02:17;;;;;;;4.73;2.93;;;6.60;99.90;;;;;;4980137;28;20483;-63
2023/12/31 09:04:46;;;;;;;3.30;2.90;;;6.60;99.90;;;;;;4979988;28;20470;-63
2023/12/31 09:07:14;;;;;;;3.80;3.00;;;6.60;99.90;;;;;;4980259;28;20527;-63
2023/12/31 09:09:43;;;;;;;5.43;2.90;;;6.60;99.90;;;;;;4977178;28;20497;-64
2023/12/31 09:12:11;;;;;;;3.00;2.70;;;6.60;99.90;;;;;;4979897;28;20585;-64
2023/12/31 09:14:39;;;;;;;3.10;2.70;;;6.60;99.90;;;;;;4979726;28;20494;-64
2023/12/31 09:17:07;;;;;;;2.43;2.10;;;6.70;99.90;;;;;;4980870;28;20489;-65
2023/12/31 09:19:35;;;;;;;4.17;2.83;;;6.70;99.90;;;;;;4978905;28;21033;-64
2023/12/31 09:22:05;;;;;;;3.23;2.93;;;6.70;99.90;;;;;;4980640;28;20472;-64
2023/12/31 09:24:33;;;;;;;3.33;2.50;;;6.70;99.90;;;;;;4979746;28;20947;-64
2023/12/31 09:27:01;;;;;;;4.00;3.03;;;6.70;99.90;;;;;;4979992;28;20593;-64
2023/12/31 09:29:29;;;;;;;3.60;3.13;;;6.70;99.90;;;;;;4978865;28;20578;-64
2023/12/31 09:31:58;;;;;;;6.57;3.47;;;6.70;99.90;;;;;;4983515;28;20970;-65
2023/12/31 09:34:26;;;;;;;4.13;2.67;;;6.70;99.90;;;;;;4981292;28;20490;-64
2023/12/31 09:36:54;;;;;;;7.63;2.93;;;6.80;99.90;;;;;;4982983;28;20495;-64
2023/12/31 09:39:23;;;;;;;4.97;3.20;;;6.80;99.90;;;;;;4982678;28;20481;-64
2023/12/31 09:41:54;;;;;;;3.23;2.93;;;6.80;99.90;;;;;;4983632;28;20468;-65
2023/12/31 09:44:23;;;;;;;3.40;2.73;;;6.80;99.90;;;;;;4982203;28;20516;-64
2023/12/31 09:47:04;;;;;;;4.60;2.80;;;6.80;99.90;;;;;;4982310;28;20528;-64
2023/12/31 09:49:39;;;;;;;3.93;3.00;;;6.80;99.90;;;;;;4982634;28;20481;-65
2023/12/31 09:52:09;;;;;;;5.10;3.03;;;6.80;99.90;;;;;;4983639;28;20469;-65
2023/12/31 09:54:40;;;;;;;4.07;3.40;;;6.80;99.90;;;;;;4981066;28;21075;-63
2023/12/31 09:57:09;;;;;;;3.30;2.80;;;6.80;99.90;;;;;;4983590;28;20493;-65
2023/12/31 09:59:46;;;;;;;3.70;2.80;;;6.80;99.90;;;;;;4981895;28;20489;-65
2023/12/31 10:02:20;;;;;;;4.03;2.60;;;6.90;99.90;;;;;;4983044;28;20470;-65
2023/12/31 10:04:50;;;;;;;4.23;2.77;;;6.90;99.90;;;;;;4981987;28;20555;-65
2023/12/31 10:07:20;;;;;;;7.03;3.00;;;6.90;99.90;;;;;;4983254;28;20493;-65
2023/12/31 10:09:50;;;;;;;3.20;2.90;;;7.00;99.90;;;;;;4981896;28;20896;-64
2023/12/31 10:12:19;;;;;;;2.87;2.30;;;6.90;99.90;;;;;;4983869;28;20653;-65
2023/12/31 10:14:48;;;;;;;6.30;3.20;;;7.00;99.90;;;;;;4981316;28;21093;-65
2023/12/31 10:17:16;;;;;;;4.20;2.50;;;7.00;99.90;;;;;;4982170;28;20504;-65
2023/12/31 10:19:45;;;;;;;5.50;2.70;;;7.00;99.90;;;;;;4982674;28;20523;-65
2023/12/31 10:22:14;;;;;;;3.30;2.60;;;7.00;99.90;;;;;;4979852;28;20861;-64
2023/12/31 10:24:42;;;;;;;4.37;2.40;;;7.00;99.90;;;;;;4981854;28;20894;-65
2023/12/31 10:27:12;;;;;;;3.37;2.50;;;7.00;99.90;;;;;;4979591;28;20509;-65
2023/12/31 10:29:40;;;;;;;5.10;2.73;;;7.10;99.90;;;;;;4982303;28;20533;-65
2023/12/31 10:32:08;;;;;;;4.80;3.00;;;7.10;99.90;;;;;;4982653;28;20480;-63
2023/12/31 10:34:36;;;;;;;4.17;2.73;;;7.10;99.90;;;;;;4980392;28;20504;-65
2023/12/31 10:37:06;;;;;;;4.53;2.83;;;7.10;99.90;;;;;;4981844;28;20489;-63
2023/12/31 10:39:36;;;;;;;4.17;3.70;;;7.10;99.90;;;;;;4982045;28;20576;-65
2023/12/31 10:42:06;;;;;;;2.60;2.27;;;7.10;99.90;;;;;;4980747;28;21017;-65
2023/12/31 10:44:36;;;;;;;2.40;2.20;;;7.10;99.90;;;;;;4982788;28;20470;-65
2023/12/31 10:47:06;;;;;;;3.10;2.57;;;7.20;99.90;;;;;;4982535;28;20497;-65
2023/12/31 10:49:35;;;;;;;2.57;2.20;;;7.20;99.90;;;;;;4981627;28;20478;-65
2023/12/31 10:52:05;;;;;;;2.83;2.40;;;7.20;99.90;;;;;;4982656;28;20499;-65
2023/12/31 10:54:40;;;;;;;3.10;2.40;;;7.20;99.90;;;;;;4981386;28;21430;-65
2023/12/31 10:57:10;;;;;;;4.83;2.20;;;7.20;99.90;;;;;;4982643;28;20586;-65
2023/12/31 10:59:41;;;;;;;3.03;2.60;;;7.20;99.90;;;;;;4980427;28;20565;-65
2023/12/31 11:02:16;;;;;;;2.83;2.43;;;7.20;99.90;;;;;;4982565;28;20470;-65
2023/12/31 11:04:45;;;;;;;3.83;2.80;;;7.20;99.90;;;;;;4982737;28;20477;-65
2023/12/31 11:07:16;;;;;;;2.97;2.50;;;7.20;99.90;;;;;;4981747;28;20490;-65
2023/12/31 11:09:46;;;;;;;2.80;2.47;;;7.20;99.90;;;;;;4981187;28;20638;-64
2023/12/31 11:12:15;;;;;;;2.40;2.13;;;7.30;99.90;;;;;;4982599;28;20466;-65
2023/12/31 11:14:49;;;;;;;5.33;2.60;;;7.20;99.90;;;;;;4980876;28;20891;-64
2023/12/31 11:17:50;;;;;;;2.83;2.60;;;7.20;99.90;;;;;;4983608;28;20508;-65
2023/12/31 11:20:56;;;;;;;2.70;2.50;;;7.20;99.90;;;;;;4981056;28;20907;-65
2023/12/31 11:23:31;;;;;;;2.73;2.37;;;7.30;99.90;;;;;;4980812;28;20850;-64
2023/12/31 11:25:59;;;;;;;3.23;2.63;;;7.30;99.90;;;;;;4980675;28;20535;-63
2023/12/31 11:28:28;;;;;;;3.37;2.80;;;7.40;99.90;;;;;;4980859;28;20504;-65
2023/12/31 11:30:59;;;;;;;3.87;2.40;;;7.40;99.90;;;;;;4981510;28;21102;-63
2023/12/31 11:33:28;;;;;;;4.33;2.63;;;7.40;99.90;;;;;;4982661;28;20564;-63
2023/12/31 11:36:00;;;;;;;3.33;2.57;;;7.40;99.90;;;;;;4978438;28;20500;-63
2023/12/31 11:38:27;;;;;;;3.57;2.70;;;7.40;99.90;;;;;;4980892;28;20580;-63
2023/12/31 11:40:56;;;;;;;2.70;2.50;;;7.50;99.90;;;;;;4982081;28;20615;-63
2023/12/31 11:43:34;;;;;;;3.27;2.90;;;7.50;99.90;;;;;;4981310;28;20560;-63
2023/12/31 11:46:04;;;;;;;4.37;2.80;;;7.50;99.90;;;;;;4980847;28;20981;-63
2023/12/31 11:48:32;;;;;;;2.60;2.40;;;7.60;99.90;;;;;;4978742;28;20868;-63
2023/12/31 11:51:01;;;;;;;2.80;2.33;;;7.60;99.90;;;;;;4982514;28;20500;-63
2023/12/31 11:53:47;;;;;;;3.60;2.90;;;7.60;99.90;;;;;;4978105;28;20532;-63
2023/12/31 11:56:15;;;;;;;3.17;2.27;;;7.70;99.90;;;;;;4981062;28;20584;-63
2023/12/31 11:58:44;;;;;;;2.60;2.40;;;7.70;99.90;;;;;;4979398;28;20478;-63
2023/12/31 12:01:13;;;;;;;4.77;2.80;;;7.80;99.90;;;;;;4981501;28;20974;-63
2023/12/31 12:03:41;;;;;;;3.90;2.80;;;7.80;99.90;;;;;;4979309;28;20955;-63
2023/12/31 12:06:09;;;;;;;3.23;2.50;;;7.80;99.90;;;;;;4981005;28;20467;-63
2023/12/31 12:08:37;;;;;;;2.93;2.70;;;7.90;99.90;;;;;;4978951;28;20490;-63
2023/12/31 12:11:05;;;;;;;3.57;2.50;;;7.90;99.90;;;;;;4980296;28;20475;-64
2023/12/31 12:13:33;;;;;;;2.50;2.30;;;8.00;99.90;;;;;;4980231;28;20478;-64
2023/12/31 12:16:01;;;;;;;3.13;2.83;;;8.10;99.90;;;;;;4980029;28;20572;-65
2023/12/31 12:18:31;;;;;;;3.83;2.50;;;8.20;99.90;;;;;;4981191;28;20998;-65
2023/12/31 12:20:59;;;;;;;2.87;2.37;;;8.30;99.90;;;;;;4980950;28;20897;-64
2023/12/31 12:23:27;;;;;;;2.50;2.30;;;8.30;99.90;;;;;;4980572;28;20470;-65
2023/12/31 12:25:58;;;;;;;2.60;2.20;;;8.30;99.90;;;;;;4980546;28;20481;-65
2023/12/31 12:28:26;;;;;;;3.80;3.50;;;8.40;99.90;;;;;;4979898;28;21005;-64
2023/12/31 12:30:54;;;;;;;3.27;2.57;;;8.40;99.90;;;;;;4979875;28;20476;-64
2023/12/31 12:33:22;;;;;;;4.40;3.00;;;8.40;99.90;;;;;;4979158;28;20485;-64
2023/12/31 12:35:52;;;;;;;2.93;2.43;;;8.40;99.90;;;;;;4979784;28;20497;-64
2023/12/31 12:38:21;;;;;;;3.10;2.67;;;8.40;99.90;;;;;;4977989;28;20543;-64
2023/12/31 12:40:51;;;;;;;2.57;2.37;;;8.40;99.90;;;;;;4981150;28;20468;-64
2023/12/31 12:43:19;;;;;;;3.63;2.60;;;8.40;99.90;;;;;;4980457;28;20472;-64
2023/12/31 12:46:03;;;;;;;3.03;2.83;;;8.30;99.90;;;;;;4979176;28;20466;-65
2023/12/31 12:48:31;;;;;;;3.77;2.67;;;8.30;99.90;;;;;;4976432;28;20986;-63
2023/12/31 12:51:01;;;;;;;3.17;2.87;;;8.20;99.90;;;;;;4980859;28;20531;-64
2023/12/31 12:53:29;;;;;;;3.10;2.80;;;8.10;99.90;;;;;;4978605;28;20517;-64
2023/12/31 12:55:57;;;;;;;3.23;2.40;;;8.10;99.90;;;;;;4980849;28;20523;-65
2023/12/31 12:58:25;;;;;;;3.37;2.50;;;8.10;99.90;;;;;;4979172;28;20521;-64
2023/12/31 13:00:53;;;;;;;2.93;2.70;;;8.00;99.90;;;;;;4980178;28;20477;-64
2023/12/31 13:03:21;;;;;;;2.93;2.73;;;8.00;99.90;;;;;;4979967;28;20474;-64
2023/12/31 13:05:49;;;;;;;3.10;2.80;;;8.00;99.90;;;;;;4980487;28;20496;-63
2023/12/31 13:08:18;;;;;;;3.30;3.00;;;8.00;99.90;;;;;;4983678;28;20485;-64